createdAt,value
2018-07-24T00:01:42.942Z,100204.84
2018-07-24T00:06:46.671Z,100205.95
2018-07-24T00:11:50.382Z,100207.59
2018-07-24T00:16:54.114Z,100201.48
2018-07-24T00:21:57.596Z,100209.98
2018-07-24T00:27:01.070Z,100208.73
2018-07-24T00:32:05.036Z,100209.50
2018-07-24T00:37:08.571Z,100207.89
2018-07-24T00:42:12.402Z,100202.95
2018-07-24T00:47:15.921Z,100203.49
2018-07-24T00:52:19.352Z,100195.69
2018-07-24T00:57:23.493Z,100193.17
2018-07-24T01:02:27.274Z,100195.15
2018-07-24T01:07:35.437Z,100185.91
2018-07-24T01:12:38.942Z,100184.41
2018-07-24T01:17:42.433Z,100184.74
2018-07-24T01:22:46.153Z,100184.63
2018-07-24T01:27:49.653Z,100187.60
2018-07-24T01:32:53.151Z,100175.95
2018-07-24T01:37:56.671Z,100177.97
2018-07-24T01:43:00.179Z,100183.13
2018-07-24T01:48:03.942Z,100181.56
2018-07-24T01:53:07.775Z,100181.56
2018-07-24T01:58:11.582Z,100177.09
2018-07-24T02:03:15.165Z,100181.56
2018-07-24T02:08:18.675Z,100190.34
2018-07-24T02:13:22.265Z,100191.56
2018-07-24T02:18:25.956Z,100175.58
2018-07-24T02:23:29.529Z,100190.34
2018-07-24T02:28:33.082Z,100182.21
2018-07-24T02:33:36.910Z,100177.49
2018-07-24T02:38:40.390Z,100181.38
2018-07-24T02:43:44.042Z,100176.53
2018-07-24T02:48:47.572Z,100183.20
2018-07-24T02:53:51.057Z,100186.53
2018-07-24T02:58:54.679Z,100177.28
2018-07-24T03:03:58.204Z,100186.87
2018-07-24T03:09:01.746Z,100190.16
2018-07-24T03:14:05.549Z,100186.46
2018-07-24T03:19:09.033Z,100190.16
2018-07-24T03:24:12.537Z,100188.08
2018-07-24T03:29:16.368Z,100192.25
2018-07-24T03:34:19.861Z,100190.05
2018-07-24T03:39:23.365Z,100195.44
2018-07-24T03:44:27.086Z,100174.08
2018-07-24T03:49:30.629Z,100194.87
2018-07-24T03:54:34.145Z,100190.72
2018-07-24T03:59:37.833Z,100193.16
2018-07-24T04:04:41.510Z,100193.27
2018-07-24T04:09:45.005Z,100196.08
2018-07-24T04:14:48.558Z,100194.13
2018-07-24T04:19:52.560Z,100198.02
2018-07-24T04:24:56.500Z,100198.33
2018-07-24T04:30:00.318Z,100197.47
2018-07-24T04:35:04.082Z,100197.16
2018-07-24T04:40:07.833Z,100196.94
2018-07-24T04:45:11.482Z,100199.56
2018-07-24T04:50:15.203Z,100202.52
2018-07-24T04:55:19.023Z,100197.70
2018-07-24T05:00:22.737Z,100204.59
2018-07-24T05:05:26.419Z,100195.92
2018-07-24T05:10:30.328Z,100196.81
2018-07-24T05:15:33.874Z,100201.44
2018-07-24T05:20:38.325Z,100200.66
2018-07-24T05:25:42.201Z,100200.98
2018-07-24T05:30:45.646Z,100206.00
2018-07-24T05:35:49.401Z,100210.59
2018-07-24T05:40:53.083Z,100212.45
2018-07-24T05:45:56.573Z,100210.50
2018-07-24T05:51:00.293Z,100214.02
2018-07-24T05:56:03.855Z,100210.92
2018-07-24T06:01:07.924Z,100219.24
2018-07-24T06:06:11.631Z,100223.20
2018-07-24T06:11:15.186Z,100228.66
2018-07-24T06:16:19.175Z,100232.16
2018-07-24T06:21:23.585Z,100225.59
2018-07-24T06:26:27.339Z,100226.36
2018-07-24T06:31:30.848Z,100222.84
2018-07-24T06:36:34.298Z,100225.28
2018-07-24T06:41:37.753Z,100227.70
2018-07-24T06:46:41.265Z,100223.06
2018-07-24T06:51:45.175Z,100226.27
2018-07-24T06:56:48.706Z,100221.30
2018-07-24T07:01:52.335Z,100216.50
2018-07-24T07:06:55.832Z,100216.34
2018-07-24T07:11:59.310Z,100213.16
2018-07-24T07:17:02.770Z,100218.86
2018-07-24T07:22:06.334Z,100219.09
2018-07-24T07:27:09.834Z,100215.88
2018-07-24T07:32:13.861Z,100212.36
2018-07-24T07:37:17.326Z,100209.72
2018-07-24T07:42:20.871Z,100199.39
2018-07-24T07:47:24.378Z,100194.01
2018-07-24T07:52:28.129Z,100192.58
2018-07-24T07:57:31.661Z,100187.64
2018-07-24T08:02:35.462Z,100190.71
2018-07-24T08:07:38.993Z,100187.71
2018-07-24T08:12:42.590Z,100182.66
2018-07-24T08:17:46.209Z,100183.72
2018-07-24T08:22:49.841Z,100178.01
2018-07-24T08:27:53.382Z,100175.26
2018-07-24T08:32:56.809Z,100171.52
2018-07-24T08:38:00.415Z,100176.25
2018-07-24T08:43:04.050Z,100166.46
2018-07-24T08:48:07.522Z,100164.56
2018-07-24T08:53:11.231Z,100159.98
2018-07-24T08:58:15.109Z,100156.65
2018-07-24T09:03:18.702Z,100164.11
2018-07-24T09:08:22.117Z,100162.64
2018-07-24T09:13:25.554Z,100165.05
2018-07-24T09:18:29.085Z,100160.45
2018-07-24T09:23:32.558Z,100158.14
2018-07-24T09:28:36.059Z,100157.44
2018-07-24T09:33:40.133Z,100151.42
2018-07-24T09:38:43.570Z,100151.20
2018-07-24T09:43:47.689Z,100143.62
2018-07-24T09:48:51.194Z,100133.14
2018-07-24T09:53:54.738Z,100137.34
2018-07-24T09:58:59.211Z,100130.20
2018-07-24T10:04:03.982Z,100133.05
2018-07-24T10:09:09.635Z,100121.50
2018-07-24T10:14:13.499Z,100126.88
2018-07-24T10:19:17.014Z,100120.84
2018-07-24T10:24:20.783Z,100110.73
2018-07-24T10:29:24.363Z,100112.93
2018-07-24T10:34:27.897Z,100110.02
2018-07-24T10:39:31.394Z,100102.00
2018-07-24T10:44:35.403Z,100104.09
2018-07-24T10:49:39.042Z,100091.89
2018-07-24T10:54:43.241Z,100090.01
2018-07-24T10:59:46.920Z,100088.87
2018-07-24T11:04:50.387Z,100075.72
2018-07-24T11:09:53.998Z,100077.36
2018-07-24T11:14:57.539Z,100064.57
2018-07-24T11:20:01.072Z,100056.00
2018-07-24T11:25:04.782Z,100058.05
2018-07-24T11:30:08.569Z,100053.55
2018-07-24T11:35:12.426Z,100049.59
2018-07-24T11:40:15.996Z,100047.98
2018-07-24T11:45:19.865Z,100041.19
2018-07-24T11:50:23.994Z,100029.86
2018-07-24T11:55:27.692Z,100033.09
2018-07-24T12:00:31.281Z,100033.09
2018-07-24T12:05:34.919Z,100028.33
2018-07-24T12:10:38.653Z,100027.55
2018-07-24T12:15:42.444Z,100018.14
2018-07-24T12:20:45.982Z,100016.89
2018-07-24T12:25:49.772Z,100005.34
2018-07-24T12:30:53.417Z,100009.08
2018-07-24T12:35:56.941Z,100006.11
2018-07-24T12:41:00.789Z,99997.84
2018-07-24T12:46:04.510Z,99986.23
2018-07-24T12:51:08.213Z,99996.14
2018-07-24T12:56:12.238Z,99991.86
2018-07-24T13:01:15.754Z,99981.95
2018-07-24T13:06:19.206Z,99975.29
2018-07-24T13:11:22.882Z,99973.20
2018-07-24T13:16:26.603Z,99970.52
2018-07-24T13:21:30.322Z,99969.09
2018-07-24T13:26:33.852Z,99969.29
2018-07-24T13:31:37.548Z,99954.61
2018-07-24T13:36:41.224Z,99944.70
2018-07-24T13:41:44.841Z,99937.20
2018-07-24T13:46:48.349Z,99943.38
2018-07-24T13:51:51.777Z,99926.98
2018-07-24T13:56:55.317Z,99934.34
2018-07-24T14:01:58.897Z,99926.97
2018-07-24T14:07:02.395Z,99924.20
2018-07-24T14:12:06.127Z,99923.82
2018-07-24T14:17:09.796Z,99927.95
2018-07-24T14:22:13.633Z,99924.73
2018-07-24T14:27:17.251Z,99919.50
2018-07-24T14:32:20.989Z,99907.13
2018-07-24T14:37:24.894Z,99917.84
2018-07-24T14:42:28.777Z,99905.97
2018-07-24T14:47:32.651Z,99902.20
2018-07-24T14:52:36.624Z,99897.83
2018-07-24T14:57:40.609Z,99890.48
2018-07-24T15:02:44.350Z,99882.77
2018-07-24T15:07:48.116Z,99883.81
2018-07-24T15:12:51.838Z,99879.76
2018-07-24T15:17:56.173Z,99879.47
2018-07-24T15:22:59.940Z,99877.38
2018-07-24T15:28:04.148Z,99876.61
2018-07-24T15:33:08.639Z,99874.16
2018-07-24T15:38:12.918Z,99862.14
2018-07-24T15:43:17.243Z,99865.84
2018-07-24T15:48:21.090Z,99865.47
2018-07-24T15:53:24.898Z,99865.38
2018-07-24T15:58:28.657Z,99861.55
2018-07-24T16:03:32.350Z,99868.70
2018-07-24T16:08:36.159Z,99864.41
2018-07-24T16:13:39.872Z,99862.05
2018-07-24T16:18:43.637Z,99860.98
2018-07-24T16:23:47.314Z,99856.03
2018-07-24T16:28:52.292Z,99849.17
2018-07-24T16:33:56.873Z,99841.16
2018-07-24T16:39:00.839Z,99844.12
2018-07-24T16:44:06.036Z,99850.50
2018-07-24T16:49:10.096Z,99850.04
2018-07-24T16:54:15.392Z,99843.92
2018-07-24T16:59:19.277Z,99846.58
2018-07-24T17:04:22.855Z,99845.15
2018-07-24T17:09:26.538Z,99843.92
2018-07-24T17:14:30.257Z,99850.70
2018-07-24T17:19:33.954Z,99854.23
2018-07-24T17:24:37.662Z,99848.77
2018-07-24T17:29:41.120Z,99853.27
2018-07-24T17:34:44.832Z,99852.23
2018-07-24T17:39:48.288Z,99854.98
2018-07-24T17:44:52.683Z,99855.55
2018-07-24T17:49:56.347Z,99859.95
2018-07-24T17:55:00.042Z,99861.08
2018-07-24T18:00:04.212Z,99870.09
2018-07-24T18:05:08.082Z,99875.12
2018-07-24T18:10:11.966Z,99879.22
2018-07-24T18:15:15.697Z,99877.52
2018-07-24T18:20:19.567Z,99883.61
2018-07-24T18:25:23.190Z,99881.04
2018-07-24T18:30:27.277Z,99886.86
2018-07-24T18:35:30.955Z,99886.56
2018-07-24T18:40:34.699Z,99889.25
2018-07-24T18:45:38.656Z,99889.06
2018-07-24T18:50:44.675Z,99886.47
2018-07-24T18:55:48.348Z,99888.49
2018-07-24T19:00:53.118Z,99890.76
2018-07-24T19:05:56.553Z,99896.11
2018-07-24T19:11:01.251Z,99901.84
2018-07-24T19:16:05.261Z,99904.61
2018-07-24T19:21:09.582Z,99911.56
2018-07-24T19:26:13.199Z,99911.09
2018-07-24T19:31:18.532Z,99921.11
2018-07-24T19:36:22.221Z,99923.61
2018-07-24T19:41:26.338Z,99932.09
2018-07-24T19:46:30.003Z,99925.60
2018-07-24T19:51:34.106Z,99932.66
2018-07-24T19:56:37.569Z,99936.75
2018-07-24T20:01:41.891Z,99945.44
2018-07-24T20:06:45.553Z,99949.06
2018-07-24T20:11:49.376Z,99947.99
2018-07-24T20:16:53.700Z,99946.55
2018-07-24T20:21:57.946Z,99951.66
2018-07-24T20:27:02.059Z,99951.65
2018-07-24T20:32:06.349Z,99956.91
2018-07-24T20:37:10.332Z,99955.40
2018-07-24T20:42:14.151Z,99955.37
2018-07-24T20:47:18.006Z,99964.36
2018-07-24T20:52:21.816Z,99955.22
2018-07-24T20:57:25.493Z,99962.83
2018-07-24T21:02:29.095Z,99963.19
2018-07-24T21:07:33.147Z,99964.54
2018-07-24T21:12:36.701Z,99961.86
2018-07-24T21:17:40.193Z,99965.13
2018-07-24T21:22:43.917Z,99967.97
2018-07-24T21:27:47.530Z,99960.43
2018-07-24T21:32:51.254Z,99968.75
2018-07-24T21:37:54.975Z,99957.93
2018-07-24T21:42:58.795Z,99961.48
2018-07-24T21:48:02.540Z,99964.31
2018-07-24T21:53:06.098Z,99962.50
2018-07-24T21:58:10.060Z,99968.98
2018-07-24T22:03:13.845Z,99970.80
2018-07-24T22:08:17.606Z,99985.87
2018-07-24T22:13:21.709Z,99979.28
2018-07-24T22:18:25.819Z,99984.38
2018-07-24T22:23:29.598Z,99978.08
2018-07-24T22:28:33.134Z,99979.93
2018-07-24T22:33:36.789Z,99983.55
2018-07-24T22:38:40.221Z,99988.36
2018-07-24T22:43:43.893Z,99986.83
2018-07-24T22:48:47.389Z,99990.84
2018-07-24T22:53:50.893Z,99988.77
2018-07-24T22:58:54.419Z,99992.55
2018-07-24T23:03:57.953Z,99972.68
2018-07-24T23:09:01.524Z,99994.39
2018-07-24T23:14:05.049Z,99994.19
2018-07-24T23:19:08.698Z,99990.84
2018-07-24T23:24:12.471Z,99996.55
2018-07-24T23:29:16.010Z,100000.28
2018-07-24T23:34:19.594Z,99993.98
2018-07-24T23:39:23.234Z,100002.66
2018-07-24T23:44:27.027Z,99997.50
2018-07-24T23:49:30.505Z,99999.11
2018-07-24T23:54:33.981Z,100002.06
2018-07-24T23:59:37.520Z,100001.48
